Time;durP1;ratioP1;P1;durP2;ratioP2;P2;SDS_P1;SDS_P2;PMS_P1;PMS_P2;Temp;Humidity;BMP_temperature;BMP_pressure;BME280_temperature;BME280_humidity;BME280_pressure;Samples;Min_cycle;Max_cycle;Signal;HPM_P1;HPM_P2
2021/11/11 00:02:15;;;;;;;43.80;20.35;;;;;;;8.08;57.32;102263.22;4975944;28;20042;-69
2021/11/11 00:04:40;;;;;;;44.38;19.92;;;;;;;8.17;56.92;102259.69;4991187;28;20524;-70
2021/11/11 00:07:07;;;;;;;41.30;20.27;;;;;;;7.88;57.84;102269.41;4974484;28;20049;-70
2021/11/11 00:09:34;;;;;;;41.13;20.48;;;;;;;7.70;58.45;102266.94;4974670;28;20031;-69
2021/11/11 00:12:00;;;;;;;44.53;20.17;;;;;;;7.69;58.16;102271.28;4975361;28;20516;-70
2021/11/11 00:14:26;;;;;;;39.92;20.75;;;;;;;7.82;58.10;102259.03;4986262;28;20070;-72
2021/11/11 00:16:52;;;;;;;45.03;20.92;;;;;;;7.62;58.71;102269.56;4978163;28;20038;-69
2021/11/11 00:19:17;;;;;;;44.50;20.83;;;;;;;7.88;57.70;102263.34;4975256;28;20045;-71
2021/11/11 00:21:43;;;;;;;40.15;19.25;;;;;;;7.96;57.72;102272.00;4974009;28;20030;-70
2021/11/11 00:24:09;;;;;;;50.85;22.80;;;;;;;8.04;57.63;102270.19;4974594;28;20025;-70
2021/11/11 00:26:36;;;;;;;50.78;23.55;;;;;;;7.73;58.16;102274.72;4973126;28;20088;-72
2021/11/11 00:29:03;;;;;;;46.05;22.25;;;;;;;7.97;57.53;102272.84;4977929;28;20038;-71
2021/11/11 00:31:28;;;;;;;46.15;21.90;;;;;;;8.18;57.16;102277.88;4973994;28;20034;-70
2021/11/11 00:33:54;;;;;;;54.78;23.10;;;;;;;8.15;56.99;102268.34;4975696;28;20499;-70
2021/11/11 00:36:20;;;;;;;50.92;21.77;;;;;;;8.09;57.08;102273.63;4979286;28;20536;-69
2021/11/11 00:38:45;;;;;;;48.85;21.88;;;;;;;8.19;57.01;102276.16;4972845;28;20050;-69
2021/11/11 00:41:11;;;;;;;54.83;23.15;;;;;;;8.07;56.66;102275.38;4959700;28;20077;-68
2021/11/11 00:43:38;;;;;;;49.35;22.92;;;;;;;7.90;57.82;102270.28;4975311;28;20736;-69
2021/11/11 00:46:04;;;;;;;50.95;23.55;;;;;;;8.08;57.14;102269.28;4976203;28;20107;-68
2021/11/11 00:48:30;;;;;;;58.88;24.17;;;;;;;8.07;57.09;102275.38;4975590;28;20045;-70
2021/11/11 00:50:55;;;;;;;49.85;23.80;;;;;;;7.80;57.91;102271.22;4974489;28;20027;-69
2021/11/11 00:53:21;;;;;;;50.70;23.15;;;;;;;7.89;58.24;102270.28;4969794;28;20094;-69
2021/11/11 00:55:50;;;;;;;48.70;23.42;;;;;;;7.99;57.58;102277.16;4963415;28;20044;-69
2021/11/11 00:58:20;;;;;;;45.38;22.95;;;;;;;8.10;57.36;102275.34;4978935;28;20054;-69
2021/11/11 01:00:46;;;;;;;58.92;24.88;;;;;;;7.91;57.63;102276.34;4994616;28;20666;-70
2021/11/11 01:03:13;;;;;;;52.90;23.27;;;;;;;8.17;57.46;102275.31;4983229;28;20045;-69
2021/11/11 01:05:39;;;;;;;57.17;24.25;;;;;;;7.40;59.29;102280.91;4989057;28;20088;-69
2021/11/11 01:08:05;;;;;;;57.92;25.15;;;;;;;8.00;57.63;102272.81;4976476;28;20041;-69
2021/11/11 01:10:31;;;;;;;55.85;25.33;;;;;;;8.10;57.41;102275.34;4990537;28;20113;-69
2021/11/11 01:12:57;;;;;;;59.10;26.08;;;;;;;7.97;57.24;102281.53;4988625;28;20126;-69
2021/11/11 01:15:26;;;;;;;55.70;24.20;;;;;;;8.13;56.97;102270.09;4986526;28;20641;-69
2021/11/11 01:17:51;;;;;;;62.00;24.90;;;;;;;7.74;57.85;102272.13;4971183;28;20042;-69
2021/11/11 01:20:19;;;;;;;58.88;25.17;;;;;;;8.19;57.13;102264.00;4986839;28;20031;-69
2021/11/11 01:22:46;;;;;;;70.35;28.48;;;;;;;7.79;58.40;102268.63;4982663;28;20056;-69
2021/11/11 01:25:16;;;;;;;62.67;28.08;;;;;;;8.20;57.40;102264.88;4978226;28;20021;-69
2021/11/11 01:27:42;;;;;;;67.60;27.65;;;;;;;7.85;57.90;102259.03;4981902;28;20683;-69
2021/11/11 01:30:15;;;;;;;64.85;30.00;;;;;;;7.71;58.63;102266.94;4974259;28;20041;-69
2021/11/11 01:32:42;;;;;;;68.50;28.88;;;;;;;7.83;58.24;102259.94;4978886;28;20646;-69
2021/11/11 01:35:10;;;;;;;61.95;28.35;;;;;;;7.95;57.68;102265.03;4969660;28;20031;-69
2021/11/11 01:37:37;;;;;;;67.28;27.65;;;;;;;8.01;57.62;102259.78;4963765;28;20126;-69
2021/11/11 01:40:05;;;;;;;69.75;27.15;;;;;;;8.19;57.43;102257.94;4968280;28;20031;-68
2021/11/11 01:43:03;;;;;;;67.93;26.95;;;;;;;8.40;57.02;102256.88;4974592;28;20113;-68
2021/11/11 01:45:32;;;;;;;76.13;28.35;;;;;;;7.85;58.13;102252.97;4967390;28;20042;-69
2021/11/11 01:48:05;;;;;;;69.97;28.60;;;;;;;8.22;57.21;102253.56;4986210;28;20046;-68
2021/11/11 01:50:31;;;;;;;69.07;28.27;;;;;;;7.97;57.90;102252.88;4972625;28;20113;-69
2021/11/11 01:52:58;;;;;;;69.60;29.77;;;;;;;8.02;58.15;102245.03;4974745;28;20181;-69
2021/11/11 01:55:24;;;;;;;75.00;30.52;;;;;;;8.30;57.14;102240.47;4991787;28;20037;-69
2021/11/11 01:57:55;;;;;;;82.13;30.52;;;;;;;8.13;57.18;102238.84;4971609;28;20043;-69
2021/11/11 02:00:25;;;;;;;74.85;30.10;;;;;;;7.92;57.54;102249.44;4980397;28;20407;-69
2021/11/11 02:03:00;;;;;;;68.00;29.75;;;;;;;8.14;57.67;102253.63;4975236;28;20059;-69
2021/11/11 02:05:45;;;;;;;74.47;29.48;;;;;;;8.18;57.50;102250.97;4972575;28;20054;-70
2021/11/11 02:08:18;;;;;;;68.97;30.60;;;;;;;8.24;57.36;102249.19;4988072;28;20440;-69
2021/11/11 02:10:45;;;;;;;67.55;28.33;;;;;;;8.34;56.97;102245.66;4957662;28;20069;-69
2021/11/11 02:13:14;;;;;;;69.28;29.58;;;;;;;8.12;57.51;102234.53;4976198;28;20046;-69
2021/11/11 02:15:40;;;;;;;71.18;31.10;;;;;;;8.24;56.71;102236.16;4960958;28;20042;-69
2021/11/11 02:18:08;;;;;;;79.90;30.73;;;;;;;7.64;58.59;102239.19;4978162;28;20126;-69
2021/11/11 02:20:40;;;;;;;77.95;32.65;;;;;;;8.03;57.71;102234.63;4977113;28;20070;-70
2021/11/11 02:23:26;;;;;;;75.45;30.83;;;;;;;8.29;56.90;102229.19;4961914;28;20599;-70
2021/11/11 02:25:58;;;;;;;66.82;28.50;;;;;;;8.46;56.82;102230.78;4975507;28;20038;-69
2021/11/11 02:28:30;;;;;;;62.78;27.48;;;;;;;7.50;59.03;102233.19;4987285;28;20034;-70
2021/11/11 02:30:56;;;;;;;77.47;30.38;;;;;;;8.03;57.71;102232.00;4981313;28;20030;-69
2021/11/11 02:33:33;;;;;;;79.35;33.90;;;;;;;7.79;58.36;102226.97;4961546;28;20035;-69
2021/11/11 02:36:00;;;;;;;86.20;30.83;;;;;;;7.78;58.17;102225.22;4976470;28;20149;-69
2021/11/11 02:38:28;;;;;;;73.00;28.95;;;;;;;8.12;57.45;102216.31;4979549;28;20046;-69
2021/11/11 02:40:54;;;;;;;80.43;32.00;;;;;;;7.87;58.15;102231.25;4981051;28;20019;-69
2021/11/11 02:43:19;;;;;;;73.90;31.60;;;;;;;7.75;58.54;102223.53;4980327;28;20430;-69
2021/11/11 02:45:49;;;;;;;72.40;31.35;;;;;;;8.18;57.16;102225.78;4984240;28;20486;-69
2021/11/11 02:48:19;;;;;;;74.55;31.55;;;;;;;8.26;57.28;102228.34;4963732;28;20069;-70
2021/11/11 02:50:51;;;;;;;77.45;31.85;;;;;;;8.14;57.59;102230.19;4949744;28;20513;-69
2021/11/11 02:53:17;;;;;;;66.30;30.40;;;;;;;8.37;57.01;102231.72;4990120;28;20653;-69
2021/11/11 02:55:45;;;;;;;64.15;30.83;;;;;;;8.23;57.09;102228.38;4970331;28;20645;-69
2021/11/11 02:58:11;;;;;;;63.35;30.77;;;;;;;8.18;57.60;102222.34;4976404;28;20042;-69
2021/11/11 03:00:50;;;;;;;65.70;29.83;;;;;;;8.03;57.39;102221.59;4963417;28;20038;-69
2021/11/11 03:03:18;;;;;;;70.43;31.75;;;;;;;8.01;57.79;102222.50;4994857;28;20531;-69
2021/11/11 03:05:44;;;;;;;70.50;30.52;;;;;;;7.77;58.76;102226.13;4997147;28;20062;-69
2021/11/11 03:08:11;;;;;;;71.05;29.83;;;;;;;8.19;57.48;102216.25;4978013;28;20132;-69
2021/11/11 03:10:45;;;;;;;64.07;28.65;;;;;;;8.36;56.80;102224.81;4980099;28;20029;-69
2021/11/11 03:13:13;;;;;;;70.75;31.63;;;;;;;8.35;56.87;102217.84;4985582;28;20050;-70
2021/11/11 03:15:42;;;;;;;63.90;28.40;;;;;;;8.28;56.86;102216.19;4988632;28;20026;-70
2021/11/11 03:18:09;;;;;;;67.25;31.00;;;;;;;7.78;58.15;102214.81;4968557;28;20046;-68
2021/11/11 03:20:35;;;;;;;65.95;29.67;;;;;;;7.63;58.51;102216.66;4952404;28;20045;-69
2021/11/11 03:23:03;;;;;;;61.33;30.30;;;;;;;7.73;58.69;102212.25;4985877;28;20597;-69
2021/11/11 03:25:31;;;;;;;61.92;28.92;;;;;;;8.10;57.46;102204.19;4996781;28;20029;-69
2021/11/11 03:27:56;;;;;;;59.35;29.77;;;;;;;7.39;59.15;102215.03;4981030;28;20043;-68
2021/11/11 03:30:27;;;;;;;71.55;29.00;;;;;;;7.76;58.39;102211.38;4991690;28;20037;-68
2021/11/11 03:32:54;;;;;;;58.60;28.67;;;;;;;7.72;58.55;102216.59;4974469;28;20054;-69
2021/11/11 03:35:23;;;;;;;66.50;30.20;;;;;;;8.04;57.57;102212.91;4981332;28;20259;-68
2021/11/11 03:37:54;;;;;;;59.28;28.88;;;;;;;8.05;57.71;102206.81;4977629;28;20069;-70
2021/11/11 03:40:27;;;;;;;65.00;28.38;;;;;;;7.94;57.44;102217.31;4981236;28;20033;-68
2021/11/11 03:42:54;;;;;;;53.00;29.17;;;;;;;8.01;57.68;102217.28;4963487;28;20068;-69
2021/11/11 03:45:25;;;;;;;56.35;28.13;;;;;;;7.81;58.16;102220.03;4990676;28;20602;-69
2021/11/11 03:47:52;;;;;;;56.17;27.05;;;;;;;8.06;57.32;102218.97;4980072;28;20038;-69
2021/11/11 03:50:19;;;;;;;60.05;29.55;;;;;;;7.80;57.90;102218.28;4972092;28;20038;-69
2021/11/11 03:52:47;;;;;;;54.75;29.90;;;;;;;8.28;56.51;102221.41;4988479;28;20042;-69
2021/11/11 03:55:15;;;;;;;57.92;29.50;;;;;;;8.06;57.10;102220.69;4983024;28;20124;-69
2021/11/11 03:57:40;;;;;;;69.05;28.63;;;;;;;8.12;56.92;102211.09;4983659;28;20041;-69
2021/11/11 04:00:10;;;;;;;55.33;28.23;;;;;;;8.03;57.12;102219.00;4988892;28;20405;-69
2021/11/11 04:02:40;;;;;;;55.17;29.10;;;;;;;7.71;58.40;102225.31;4994295;28;21109;-69
2021/11/11 04:05:07;;;;;;;57.25;28.17;;;;;;;7.92;57.75;102218.22;4984364;28;20030;-69
2021/11/11 04:07:34;;;;;;;60.35;29.75;;;;;;;8.13;57.17;102220.63;4966672;28;20047;-69
2021/11/11 04:10:00;;;;;;;59.92;28.83;;;;;;;7.98;57.36;102219.88;4971175;28;20030;-69
2021/11/11 04:12:26;;;;;;;61.47;29.10;;;;;;;7.97;57.48;102213.81;4972000;28;20045;-69
2021/11/11 04:14:51;;;;;;;57.33;28.30;;;;;;;7.90;57.63;102215.59;4981973;28;20033;-69
2021/11/11 04:17:18;;;;;;;52.15;27.63;;;;;;;7.79;57.72;102219.16;4981804;28;20041;-70
2021/11/11 04:19:43;;;;;;;64.03;29.98;;;;;;;7.97;57.09;102221.63;4977416;28;20088;-69
2021/11/11 04:22:09;;;;;;;64.38;27.23;;;;;;;7.47;58.90;102220.22;4981365;28;20423;-69
2021/11/11 04:24:35;;;;;;;57.65;29.20;;;;;;;7.51;58.74;102221.91;4978946;28;20168;-68
2021/11/11 04:27:14;;;;;;;56.00;28.45;;;;;;;7.94;57.94;102229.47;4993264;28;20415;-70
2021/11/11 04:29:45;;;;;;;56.78;28.65;;;;;;;8.13;56.96;102220.63;4978933;28;20096;-70
2021/11/11 04:32:12;;;;;;;58.15;28.65;;;;;;;8.20;56.75;102231.00;4990911;28;20089;-69
2021/11/11 04:34:40;;;;;;;58.42;29.25;;;;;;;7.40;59.10;102226.28;4988993;28;20041;-69
2021/11/11 04:42:28;;;;;;;62.38;28.95;;;;;;;7.79;57.71;102227.84;4994149;28;20048;-70
2021/11/11 04:45:09;;;;;;;65.57;28.25;;;;;;;7.33;59.17;102228.06;4981583;28;20842;-69
2021/11/11 04:59:30;;;;;;;64.78;28.73;;;;;;;7.85;57.75;102239.97;4947560;28;20050;-68
2021/11/11 05:03:46;;;;;;;52.97;27.17;;;;;;;7.44;58.51;102217.59;4993392;28;20049;-69
2021/11/11 05:06:14;;;;;;;58.42;25.85;;;;;;;7.56;57.97;102214.09;4983490;28;20451;-69
2021/11/11 05:08:42;;;;;;;53.05;24.58;;;;;;;7.89;57.34;102215.63;4974487;28;20099;-68
2021/11/11 05:11:08;;;;;;;52.33;24.95;;;;;;;7.80;57.54;102213.97;4959849;28;20034;-68
2021/11/11 05:13:34;;;;;;;57.50;24.48;;;;;;;7.85;57.12;102221.75;4961198;28;20141;-69
2021/11/11 05:16:03;;;;;;;48.40;25.38;;;;;;;7.73;57.53;102223.56;4957573;28;20061;-69
2021/11/11 05:18:28;;;;;;;49.75;22.60;;;;;;;7.72;57.50;102224.41;4961502;28;20784;-68
2021/11/11 05:20:55;;;;;;;50.97;25.05;;;;;;;7.73;57.54;102233.97;4972166;28;20041;-69
2021/11/11 05:23:22;;;;;;;59.22;25.45;;;;;;;7.72;57.66;102228.75;4959162;28;20124;-68
2021/11/11 05:25:48;;;;;;;42.13;21.48;;;;;;;7.41;58.55;102222.84;4957656;28;20035;-67
2021/11/11 05:28:16;;;;;;;52.70;24.58;;;;;;;7.71;57.88;102220.09;4968115;28;20117;-71
2021/11/11 05:30:41;;;;;;;55.90;25.33;;;;;;;7.72;57.81;102224.41;4974488;28;20676;-69
2021/11/11 05:33:07;;;;;;;50.35;23.25;;;;;;;7.89;57.31;102220.81;4986828;28;20071;-69
2021/11/11 05:35:34;;;;;;;45.50;24.20;;;;;;;7.49;58.13;102219.31;4956258;28;20042;-68
2021/11/11 05:38:00;;;;;;;44.42;23.88;;;;;;;7.88;57.01;102212.16;4968419;28;20050;-69
2021/11/11 05:40:26;;;;;;;54.38;24.58;;;;;;;7.20;58.62;102214.28;4956443;28;20036;-70
2021/11/11 05:42:52;;;;;;;55.38;23.85;;;;;;;7.82;57.31;102225.19;4960952;28;20535;-69
2021/11/11 05:45:18;;;;;;;47.20;23.38;;;;;;;7.50;58.00;102214.97;4941352;28;20161;-71
2021/11/11 05:47:47;;;;;;;52.97;23.27;;;;;;;7.33;58.40;102223.75;4965442;28;20133;-66
2021/11/11 05:50:14;;;;;;;51.63;22.67;;;;;;;7.24;58.54;102223.75;4968631;28;20375;-69
2021/11/11 05:52:40;;;;;;;52.70;24.10;;;;;;;7.46;58.35;102228.88;4962956;28;20500;-70
2021/11/11 05:55:08;;;;;;;51.80;23.63;;;;;;;7.79;57.18;102221.78;4972238;28;20043;-70
2021/11/11 05:57:35;;;;;;;49.95;23.90;;;;;;;7.11;58.62;102219.50;4971876;28;20050;-70
2021/11/11 06:00:01;;;;;;;54.80;23.80;;;;;;;7.62;57.86;102216.66;4998443;28;20034;-69
2021/11/11 06:02:29;;;;;;;45.25;23.95;;;;;;;7.35;58.71;102218.50;4992974;28;20688;-70
2021/11/11 06:04:55;;;;;;;51.65;24.45;;;;;;;7.02;59.43;102223.00;4998234;28;20033;-70
2021/11/11 06:07:23;;;;;;;50.60;22.35;;;;;;;7.18;58.92;102225.56;4999662;28;20042;-69
2021/11/11 06:09:48;;;;;;;52.40;25.30;;;;;;;6.99;59.42;102222.16;4992190;28;20030;-69
2021/11/11 06:12:14;;;;;;;51.47;23.98;;;;;;;7.27;58.86;102223.75;4968148;28;20046;-68
2021/11/11 06:14:39;;;;;;;50.20;23.98;;;;;;;7.30;58.96;102218.53;4998074;28;20396;-69
2021/11/11 06:17:06;;;;;;;51.72;24.83;;;;;;;7.45;58.17;102207.19;4993153;28;20046;-70
2021/11/11 06:19:34;;;;;;;59.50;24.10;;;;;;;7.77;57.41;102208.75;4967213;28;20170;-68
2021/11/11 06:22:00;;;;;;;46.00;22.98;;;;;;;7.46;58.38;102218.47;4994278;28;20137;-69
2021/11/11 06:24:25;;;;;;;52.75;23.50;;;;;;;7.35;58.88;102225.47;4965328;28;20105;-69
2021/11/11 06:26:51;;;;;;;58.42;24.67;;;;;;;7.20;59.15;102226.38;4965657;28;20206;-68
2021/11/11 06:29:16;;;;;;;60.25;23.85;;;;;;;7.09;60.00;102224.72;4949179;28;20041;-69
2021/11/11 06:31:42;;;;;;;53.13;24.67;;;;;;;7.63;58.24;102227.06;4976787;28;20026;-69
2021/11/11 06:34:16;;;;;;;50.53;25.35;;;;;;;7.67;57.62;102226.19;4982171;28;20117;-69
2021/11/11 06:36:41;;;;;;;56.40;25.05;;;;;;;7.95;56.98;102231.19;4958819;28;20418;-70
2021/11/11 06:39:07;;;;;;;55.25;24.83;;;;;;;8.10;56.86;102233.69;4959461;28;20049;-69
2021/11/11 06:41:33;;;;;;;58.75;25.38;;;;;;;7.68;57.98;102240.91;4962564;28;20574;-70
2021/11/11 06:43:58;;;;;;;62.55;27.38;;;;;;;7.73;57.63;102233.97;4984896;28;20031;-70
2021/11/11 06:46:24;;;;;;;60.83;27.02;;;;;;;7.62;58.12;102235.75;4974863;28;20037;-69
2021/11/11 06:48:50;;;;;;;55.97;26.30;;;;;;;7.64;58.59;102236.59;4976047;28;20058;-69
2021/11/11 06:51:16;;;;;;;67.93;28.30;;;;;;;7.26;59.34;102237.63;4992722;28;20053;-69
2021/11/11 06:53:42;;;;;;;58.55;27.10;;;;;;;7.37;59.17;102241.94;4993405;28;20042;-68
2021/11/11 06:56:08;;;;;;;61.13;26.70;;;;;;;7.49;58.65;102250.53;5007075;28;20053;-69
2021/11/11 06:58:33;;;;;;;81.07;31.63;;;;;;;7.49;59.21;102254.88;4990107;28;20066;-69
2021/11/11 07:01:03;;;;;;;70.20;29.48;;;;;;;7.22;59.81;102251.53;5001301;28;20040;-69
2021/11/11 07:03:29;;;;;;;76.15;30.17;;;;;;;7.66;58.64;102258.28;4994377;28;20051;-68
2021/11/11 07:05:55;;;;;;;73.70;28.95;;;;;;;7.37;59.44;102258.38;4995021;28;20022;-69
2021/11/11 07:08:21;;;;;;;64.40;30.38;;;;;;;7.38;59.38;102252.34;4988639;28;20050;-69
2021/11/11 07:10:50;;;;;;;67.22;28.73;;;;;;;7.37;59.62;102254.94;4996967;28;20704;-69
2021/11/11 07:13:16;;;;;;;70.50;29.60;;;;;;;7.48;58.98;102264.41;4984686;28;20057;-68
2021/11/11 07:15:42;;;;;;;66.75;27.80;;;;;;;7.70;58.57;102265.19;4976843;28;20114;-69
2021/11/11 07:18:11;;;;;;;69.80;28.75;;;;;;;7.56;59.16;102273.94;4980599;28;20077;-68
2021/11/11 07:20:40;;;;;;;71.50;28.35;;;;;;;7.32;60.21;102262.75;4994921;28;20117;-68
2021/11/11 07:23:06;;;;;;;65.18;27.65;;;;;;;7.20;60.17;102271.47;4994998;28;20046;-68
2021/11/11 07:25:33;;;;;;;56.60;26.95;;;;;;;7.19;60.58;102264.53;4993453;28;20129;-68
2021/11/11 07:27:58;;;;;;;57.75;26.95;;;;;;;7.41;60.19;102265.31;4991624;28;20050;-68
2021/11/11 07:30:25;;;;;;;73.13;28.10;;;;;;;7.03;61.10;102275.84;4984963;28;20040;-68
2021/11/11 07:32:51;;;;;;;60.92;28.17;;;;;;;7.80;59.02;102270.34;4979885;28;20034;-69
2021/11/11 07:35:17;;;;;;;60.33;27.05;;;;;;;7.86;58.30;102276.38;4985493;28;20038;-68
2021/11/11 07:37:46;;;;;;;66.63;25.90;;;;;;;7.50;59.33;102277.41;4991467;28;20049;-68
2021/11/11 07:40:15;;;;;;;52.22;25.95;;;;;;;7.42;59.67;102273.97;4995923;28;20490;-68
2021/11/11 07:42:43;;;;;;;57.75;26.17;;;;;;;7.93;58.86;102275.47;4974868;28;20509;-68
2021/11/11 07:45:11;;;;;;;56.72;26.00;;;;;;;8.10;58.03;102272.75;4995060;28;20022;-69
2021/11/11 07:47:36;;;;;;;60.85;27.40;;;;;;;8.05;58.17;102282.34;4990042;28;20058;-69
2021/11/11 07:50:04;;;;;;;57.65;26.30;;;;;;;8.07;58.38;102280.59;4997516;28;20677;-68
2021/11/11 07:52:30;;;;;;;59.15;26.98;;;;;;;7.77;59.16;102286.00;4992477;28;20054;-68
2021/11/11 07:54:57;;;;;;;54.38;26.23;;;;;;;7.67;59.23;102286.03;4978038;28;20061;-68
2021/11/11 07:57:28;;;;;;;50.58;23.88;;;;;;;7.91;59.03;102289.34;4979771;28;20053;-70
2021/11/11 07:59:54;;;;;;;53.58;26.67;;;;;;;7.21;59.94;102291.41;4984378;28;20476;-68
2021/11/11 08:02:20;;;;;;;52.78;24.35;;;;;;;7.50;59.79;102296.47;4989130;28;20073;-68
2021/11/11 08:04:47;;;;;;;48.63;23.15;;;;;;;7.91;58.51;102290.25;4979045;28;20696;-68
2021/11/11 08:07:14;;;;;;;49.42;25.58;;;;;;;7.77;58.80;102292.06;4982461;28;20076;-68
2021/11/11 08:09:40;;;;;;;53.58;25.40;;;;;;;7.90;58.43;102303.25;4993476;28;20050;-68
2021/11/11 08:12:06;;;;;;;54.63;25.50;;;;;;;7.71;59.31;102297.28;4990886;28;20045;-68
2021/11/11 08:14:32;;;;;;;60.05;28.05;;;;;;;7.93;58.69;102283.25;4994439;28;20046;-68
2021/11/11 08:16:58;;;;;;;65.82;29.40;;;;;;;7.28;60.47;102281.84;4974556;28;20045;-68
2021/11/11 08:19:23;;;;;;;68.15;28.73;;;;;;;7.87;58.85;102279.84;4993643;28;20038;-68
2021/11/11 08:21:49;;;;;;;68.18;29.20;;;;;;;7.81;59.30;102285.09;4992457;28;20052;-69
2021/11/11 08:24:15;;;;;;;72.57;30.92;;;;;;;7.85;59.00;102295.47;4985370;28;20089;-69
2021/11/11 08:26:41;;;;;;;64.50;29.08;;;;;;;8.12;58.22;102289.22;4994032;28;20038;-68
2021/11/11 08:29:07;;;;;;;61.60;27.98;;;;;;;8.07;58.17;102293.63;4978681;28;20116;-69
2021/11/11 08:31:33;;;;;;;65.30;28.90;;;;;;;8.26;58.04;102285.66;4982987;28;20082;-69
2021/11/11 08:33:58;;;;;;;72.82;28.40;;;;;;;8.09;58.40;102285.78;4995323;28;20041;-68
2021/11/11 08:36:26;;;;;;;66.93;27.48;;;;;;;8.25;57.88;102290.00;4990024;28;20185;-68
2021/11/11 08:38:52;;;;;;;58.38;26.10;;;;;;;8.12;58.23;102286.63;4990733;28;20061;-68
2021/11/11 08:41:18;;;;;;;60.70;28.25;;;;;;;8.17;58.03;102288.34;4978948;28;20046;-68
2021/11/11 08:43:45;;;;;;;58.30;27.45;;;;;;;8.18;58.37;102285.69;4991425;28;20030;-69
2021/11/11 08:46:11;;;;;;;66.20;28.40;;;;;;;7.99;58.58;102291.94;4992476;28;20121;-69
2021/11/11 08:48:37;;;;;;;68.85;28.27;;;;;;;8.05;58.13;102292.75;4972846;28;20263;-71
2021/11/11 08:51:03;;;;;;;65.70;28.30;;;;;;;8.38;57.18;102300.31;4995603;28;20057;-69
2021/11/11 08:53:30;;;;;;;63.35;27.20;;;;;;;8.25;57.68;102286.53;5001670;28;20092;-69
2021/11/11 08:55:56;;;;;;;60.45;25.90;;;;;;;8.42;57.36;102284.66;4975805;28;20030;-69
2021/11/11 08:58:21;;;;;;;63.25;28.70;;;;;;;7.51;59.82;102285.22;4979801;28;20045;-70
2021/11/11 09:00:50;;;;;;;58.35;25.80;;;;;;;8.20;58.02;102283.09;4977870;28;20145;-68
2021/11/11 09:03:18;;;;;;;58.15;25.52;;;;;;;8.16;58.40;102287.47;4992088;28;20061;-70
2021/11/11 09:05:44;;;;;;;51.08;25.10;;;;;;;8.35;57.90;102285.59;4977426;28;20025;-68
2021/11/11 09:08:09;;;;;;;54.55;25.90;;;;;;;8.46;57.64;102288.97;4992813;28;20491;-70
2021/11/11 09:10:42;;;;;;;49.03;23.17;;;;;;;8.35;57.68;102285.59;4990945;28;20045;-69
2021/11/11 09:13:07;;;;;;;54.90;24.83;;;;;;;8.12;58.46;102281.41;4979489;28;20100;-70
2021/11/11 09:15:34;;;;;;;56.00;24.65;;;;;;;8.36;57.89;102289.94;4973740;28;20471;-69
2021/11/11 09:18:02;;;;;;;48.97;22.75;;;;;;;8.62;57.33;102286.22;4993597;28;20041;-68
2021/11/11 09:20:29;;;;;;;50.75;22.52;;;;;;;8.43;58.00;102283.78;4976995;28;20049;-69
2021/11/11 09:22:56;;;;;;;57.65;24.05;;;;;;;8.26;58.11;102283.91;4993098;28;20548;-68
2021/11/11 09:25:23;;;;;;;53.20;23.77;;;;;;;8.34;58.03;102289.06;4972565;28;20109;-68
2021/11/11 09:27:49;;;;;;;48.70;23.45;;;;;;;8.15;58.33;102286.59;4988519;28;20053;-69
2021/11/11 09:30:19;;;;;;;53.40;24.33;;;;;;;8.31;58.35;102283.88;4992368;28;20914;-69
2021/11/11 09:32:45;;;;;;;52.70;23.95;;;;;;;8.01;59.26;102285.84;4989740;28;20129;-68
2021/11/11 09:35:12;;;;;;;45.35;21.88;;;;;;;8.32;58.03;102285.63;4988104;28;20100;-70
2021/11/11 09:37:38;;;;;;;44.90;21.98;;;;;;;8.65;57.29;102292.28;4979947;28;20054;-70
2021/11/11 09:40:08;;;;;;;50.83;22.45;;;;;;;8.81;56.99;102292.13;4993869;28;20030;-69
2021/11/11 09:42:35;;;;;;;48.08;22.80;;;;;;;8.76;57.02;102293.06;4997605;28;20818;-69
2021/11/11 09:45:03;;;;;;;45.83;21.30;;;;;;;8.86;56.53;102295.59;4995083;28;20032;-69
2021/11/11 09:47:30;;;;;;;44.42;22.33;;;;;;;8.01;58.90;102298.84;4980627;28;20525;-69
2021/11/11 09:49:56;;;;;;;45.63;22.33;;;;;;;8.68;56.97;102294.00;4993945;28;20129;-69
2021/11/11 09:52:22;;;;;;;47.05;21.40;;;;;;;8.75;57.33;102295.69;4993308;28;20873;-68
2021/11/11 10:00:17;;;;;;;41.70;20.92;;;;;;;8.75;56.98;102293.94;4995476;28;20399;-69
2021/11/11 10:02:43;;;;;;;46.28;21.58;;;;;;;8.61;58.10;102297.53;4997739;28;20034;-69
2021/11/11 10:05:10;;;;;;;44.00;19.80;;;;;;;9.23;56.83;102297.78;4986606;28;20030;-69
2021/11/11 10:07:36;;;;;;;48.90;22.70;;;;;;;8.83;56.74;102300.81;4985583;28;20211;-68
2021/11/11 10:10:02;;;;;;;34.85;17.08;;;;;;;8.97;57.21;102305.03;4982312;28;20113;-69
2021/11/11 10:12:28;;;;;;;37.75;18.63;;;;;;;8.95;57.02;102309.38;4965689;28;20049;-68
2021/11/11 10:15:07;;;;;;;38.35;19.67;;;;;;;9.22;56.34;102302.13;4979562;28;20023;-68
2021/11/11 10:17:42;;;;;;;34.38;19.15;;;;;;;8.63;58.14;102295.75;4978901;28;20061;-69
2021/11/11 10:20:10;;;;;;;34.85;18.40;;;;;;;8.76;57.95;102298.28;4980278;28;20068;-69
2021/11/11 10:22:38;;;;;;;39.47;18.58;;;;;;;9.30;57.00;102304.69;4993917;28;20050;-69
2021/11/11 10:25:11;;;;;;;32.08;16.10;;;;;;;8.68;58.33;102300.06;4978046;28;20214;-69
2021/11/11 10:27:51;;;;;;;31.45;16.60;;;;;;;8.67;58.14;102305.28;4986823;28;20471;-68
2021/11/11 10:30:26;;;;;;;40.42;18.05;;;;;;;8.90;57.47;102311.19;4985840;28;20042;-69
2021/11/11 10:32:54;;;;;;;29.85;15.52;;;;;;;9.23;57.29;102305.59;4985076;28;20073;-69
2021/11/11 10:35:32;;;;;;;34.45;18.90;;;;;;;9.13;57.01;102302.25;4997650;28;20030;-68
2021/11/11 10:38:00;;;;;;;31.98;17.17;;;;;;;8.56;59.11;102301.03;4982289;28;20038;-68
2021/11/11 10:40:42;;;;;;;37.75;17.98;;;;;;;9.17;57.41;102298.72;4997452;28;20042;-68
2021/11/11 10:43:15;;;;;;;;;;;;;;;9.08;57.62;102296.22;4977507;28;20048;-69
2021/11/11 10:45:47;;;;;;;35.45;16.70;;;;;;;9.69;56.44;102298.06;4980290;28;20000;-69
2021/11/11 10:48:16;;;;;;;33.30;16.58;;;;;;;9.10;57.50;102291.88;4992841;28;20041;-69
2021/11/11 10:50:44;;;;;;;32.13;16.15;;;;;;;9.80;55.99;102300.56;4994908;28;20042;-69
2021/11/11 10:53:12;;;;;;;29.92;15.45;;;;;;;9.17;57.41;102293.50;4994777;28;20050;-68
2021/11/11 10:55:42;;;;;;;30.80;15.80;;;;;;;9.65;56.17;102291.16;4994713;28;20185;-68
2021/11/11 10:58:14;;;;;;;29.88;14.52;;;;;;;9.64;56.34;102288.59;4979144;28;21142;-68
2021/11/11 11:00:49;;;;;;;;;;;;;;;9.32;57.05;102282.91;4977613;28;20034;-69
2021/11/11 11:03:31;;;;;;;27.55;12.88;;;;;;;8.98;57.68;102293.72;4996476;28;19940;-69
2021/11/11 11:06:00;;;;;;;29.40;14.55;;;;;;;9.38;56.97;102288.03;4983336;28;20164;-69
2021/11/11 11:08:27;;;;;;;31.65;14.48;;;;;;;9.32;56.95;102282.00;4994973;28;20053;-69
2021/11/11 11:11:00;;;;;;;33.20;14.70;;;;;;;9.43;57.13;102284.50;4994485;28;20046;-68
2021/11/11 11:13:38;;;;;;;31.65;15.50;;;;;;;9.49;56.84;102284.41;4992795;28;20117;-70
2021/11/11 11:16:33;;;;;;;33.22;17.33;;;;;;;9.40;56.95;102291.47;4993951;28;20034;-69
2021/11/11 11:19:05;;;;;;;29.38;14.82;;;;;;;9.83;56.03;102278.78;4975714;28;20053;-68
2021/11/11 11:21:36;;;;;;;38.15;16.27;;;;;;;9.77;56.61;102282.31;4967586;28;20124;-69
2021/11/11 11:24:09;;;;;;;34.35;16.98;;;;;;;9.85;56.39;102279.63;4981090;28;20029;-69
2021/11/11 11:26:43;;;;;;;33.72;16.42;;;;;;;9.89;55.96;102282.16;4982873;28;20049;-70
2021/11/11 11:32:07;;;;;;;34.05;16.70;;;;;;;10.04;55.62;102278.47;4993412;28;20109;-69
2021/11/11 11:34:38;;;;;;;30.02;16.10;;;;;;;10.29;54.93;102283.28;4977656;28;20061;-69
2021/11/11 11:37:09;;;;;;;39.23;17.70;;;;;;;10.12;55.69;102283.56;4993586;28;20053;-69
2021/11/11 11:39:40;;;;;;;49.13;16.70;;;;;;;10.10;55.68;102286.22;4985628;28;20379;-69
2021/11/11 11:42:13;;;;;;;36.53;16.20;;;;;;;9.92;55.67;102286.47;4984468;28;20065;-69
2021/11/11 11:44:47;;;;;;;38.70;17.70;;;;;;;9.82;56.29;102285.75;4994980;28;20053;-69
2021/11/11 11:47:17;;;;;;;34.95;16.42;;;;;;;9.98;55.81;102279.41;4994977;28;20041;-69
2021/11/11 11:49:52;;;;;;;38.42;18.17;;;;;;;9.68;56.59;102280.69;4995529;28;20105;-69